sensor_id;sensor_type;location;lat;lon;timestamp;temperature;humidity
19538;DHT22;9914;51.008;4.300;2023-11-18T00:00:25;8.00;99.90
19538;DHT22;9914;51.008;4.300;2023-11-18T00:02:51;7.90;99.90
19538;DHT22;9914;51.008;4.300;2023-11-18T00:05:17;8.00;99.90
19538;DHT22;9914;51.008;4.300;2023-11-18T00:07:43;8.00;99.90
19538;DHT22;9914;51.008;4.300;2023-11-18T00:10:09;8.10;99.90
19538;DHT22;9914;51.008;4.300;2023-11-18T00:12:36;8.30;99.90
19538;DHT22;9914;51.008;4.300;2023-11-18T00:15:04;8.30;99.90
19538;DHT22;9914;51.008;4.300;2023-11-18T00:17:31;8.30;99.90
19538;DHT22;9914;51.008;4.300;2023-11-18T00:19:57;8.20;99.90
19538;DHT22;9914;51.008;4.300;2023-11-18T00:22:23;8.10;99.90
19538;DHT22;9914;51.008;4.300;2023-11-18T00:24:48;8.10;99.90
19538;DHT22;9914;51.008;4.300;2023-11-18T00:27:14;8.00;99.90
19538;DHT22;9914;51.008;4.300;2023-11-18T00:29:41;7.90;99.90
19538;DHT22;9914;51.008;4.300;2023-11-18T00:32:06;7.90;99.90
19538;DHT22;9914;51.008;4.300;2023-11-18T00:34:33;7.90;99.90
19538;DHT22;9914;51.008;4.300;2023-11-18T00:36:58;8.00;99.90
19538;DHT22;9914;51.008;4.300;2023-11-18T00:39:27;8.10;99.90
19538;DHT22;9914;51.008;4.300;2023-11-18T00:41:53;8.10;99.90
19538;DHT22;9914;51.008;4.300;2023-11-18T00:44:21;8.10;99.90
19538;DHT22;9914;51.008;4.300;2023-11-18T00:46:47;8.10;99.90
19538;DHT22;9914;51.008;4.300;2023-11-18T00:49:12;8.20;99.90
19538;DHT22;9914;51.008;4.300;2023-11-18T00:51:38;8.10;99.90
19538;DHT22;9914;51.008;4.300;2023-11-18T00:54:04;8.10;99.90
19538;DHT22;9914;51.008;4.300;2023-11-18T00:56:33;8.10;99.90
19538;DHT22;9914;51.008;4.300;2023-11-18T00:58:59;8.20;99.90
19538;DHT22;9914;51.008;4.300;2023-11-18T01:01:26;8.20;99.90
19538;DHT22;9914;51.008;4.300;2023-11-18T01:03:52;8.30;99.90
19538;DHT22;9914;51.008;4.300;2023-11-18T01:06:19;8.40;99.90
19538;DHT22;9914;51.008;4.300;2023-11-18T01:08:45;8.50;99.90
19538;DHT22;9914;51.008;4.300;2023-11-18T01:11:11;8.40;99.90
19538;DHT22;9914;51.008;4.300;2023-11-18T01:13:40;8.30;99.90
19538;DHT22;9914;51.008;4.300;2023-11-18T01:16:06;8.30;99.90
19538;DHT22;9914;51.008;4.300;2023-11-18T01:18:31;8.20;99.90
19538;DHT22;9914;51.008;4.300;2023-11-18T01:20:57;8.20;99.90
19538;DHT22;9914;51.008;4.300;2023-11-18T01:23:24;8.20;99.90
19538;DHT22;9914;51.008;4.300;2023-11-18T01:25:49;8.20;99.90
19538;DHT22;9914;51.008;4.300;2023-11-18T01:28:16;8.20;99.90
19538;DHT22;9914;51.008;4.300;2023-11-18T01:30:42;8.10;99.90
19538;DHT22;9914;51.008;4.300;2023-11-18T01:33:10;8.00;99.90
19538;DHT22;9914;51.008;4.300;2023-11-18T01:35:36;7.90;99.90
19538;DHT22;9914;51.008;4.300;2023-11-18T01:38:02;7.90;99.90
19538;DHT22;9914;51.008;4.300;2023-11-18T01:40:27;8.00;99.90
19538;DHT22;9914;51.008;4.300;2023-11-18T01:42:56;8.10;99.90
19538;DHT22;9914;51.008;4.300;2023-11-18T01:45:22;8.30;99.90
19538;DHT22;9914;51.008;4.300;2023-11-18T01:47:48;8.30;99.90
19538;DHT22;9914;51.008;4.300;2023-11-18T01:50:14;8.50;99.90
19538;DHT22;9914;51.008;4.300;2023-11-18T01:52:43;8.50;99.90
19538;DHT22;9914;51.008;4.300;2023-11-18T01:55:09;8.60;99.90
19538;DHT22;9914;51.008;4.300;2023-11-18T01:57:36;8.50;99.90
19538;DHT22;9914;51.008;4.300;2023-11-18T02:00:03;8.50;99.90
19538;DHT22;9914;51.008;4.300;2023-11-18T02:02:32;8.50;99.90
19538;DHT22;9914;51.008;4.300;2023-11-18T02:04:59;8.50;99.90
19538;DHT22;9914;51.008;4.300;2023-11-18T02:07:27;8.50;99.90
19538;DHT22;9914;51.008;4.300;2023-11-18T02:09:54;8.60;99.90
19538;DHT22;9914;51.008;4.300;2023-11-18T02:12:29;8.60;99.90
19538;DHT22;9914;51.008;4.300;2023-11-18T02:14:57;8.70;99.90
19538;DHT22;9914;51.008;4.300;2023-11-18T02:17:23;8.80;99.90
19538;DHT22;9914;51.008;4.300;2023-11-18T02:19:56;8.70;99.90
19538;DHT22;9914;51.008;4.300;2023-11-18T02:22:23;8.70;99.90
19538;DHT22;9914;51.008;4.300;2023-11-18T02:24:49;8.70;99.90
19538;DHT22;9914;51.008;4.300;2023-11-18T02:27:15;8.60;99.90
19538;DHT22;9914;51.008;4.300;2023-11-18T02:29:44;8.60;99.90
19538;DHT22;9914;51.008;4.300;2023-11-18T02:32:28;8.50;99.90
19538;DHT22;9914;51.008;4.300;2023-11-18T02:35:13;8.50;99.90
19538;DHT22;9914;51.008;4.300;2023-11-18T02:37:44;8.60;99.90
19538;DHT22;9914;51.008;4.300;2023-11-18T02:40:12;8.70;99.90
19538;DHT22;9914;51.008;4.300;2023-11-18T02:42:41;8.70;99.90
19538;DHT22;9914;51.008;4.300;2023-11-18T02:45:09;8.70;99.90
19538;DHT22;9914;51.008;4.300;2023-11-18T02:47:38;8.70;99.90
19538;DHT22;9914;51.008;4.300;2023-11-18T02:50:05;8.60;99.90
19538;DHT22;9914;51.008;4.300;2023-11-18T02:52:36;8.60;99.90
19538;DHT22;9914;51.008;4.300;2023-11-18T02:55:04;8.50;99.90
19538;DHT22;9914;51.008;4.300;2023-11-18T02:57:32;8.50;99.90
19538;DHT22;9914;51.008;4.300;2023-11-18T02:59:58;8.60;99.90
19538;DHT22;9914;51.008;4.300;2023-11-18T03:02:26;8.60;99.90
19538;DHT22;9914;51.008;4.300;2023-11-18T03:04:53;8.60;99.90
19538;DHT22;9914;51.008;4.300;2023-11-18T03:07:19;8.70;99.90
19538;DHT22;9914;51.008;4.300;2023-11-18T03:09:44;8.50;99.90
19538;DHT22;9914;51.008;4.300;2023-11-18T03:12:12;8.40;99.90
19538;DHT22;9914;51.008;4.300;2023-11-18T03:14:38;8.50;99.90
19538;DHT22;9914;51.008;4.300;2023-11-18T03:17:04;8.30;99.90
19538;DHT22;9914;51.008;4.300;2023-11-18T03:19:32;8.40;99.90
19538;DHT22;9914;51.008;4.300;2023-11-18T03:22:03;8.40;99.90
19538;DHT22;9914;51.008;4.300;2023-11-18T03:24:28;8.50;99.90
19538;DHT22;9914;51.008;4.300;2023-11-18T03:26:55;8.60;99.90
19538;DHT22;9914;51.008;4.300;2023-11-18T03:29:20;8.60;99.90
19538;DHT22;9914;51.008;4.300;2023-11-18T03:31:46;8.70;99.90
19538;DHT22;9914;51.008;4.300;2023-11-18T03:34:16;8.70;99.90
19538;DHT22;9914;51.008;4.300;2023-11-18T03:36:44;8.70;99.90
19538;DHT22;9914;51.008;4.300;2023-11-18T03:39:10;8.60;99.90
19538;DHT22;9914;51.008;4.300;2023-11-18T03:41:36;8.50;99.90
19538;DHT22;9914;51.008;4.300;2023-11-18T03:44:04;8.40;99.90
19538;DHT22;9914;51.008;4.300;2023-11-18T03:46:29;8.30;99.90
19538;DHT22;9914;51.008;4.300;2023-11-18T03:48:58;8.40;99.90
19538;DHT22;9914;51.008;4.300;2023-11-18T03:51:24;8.50;99.90
19538;DHT22;9914;51.008;4.300;2023-11-18T03:53:50;8.60;99.90
19538;DHT22;9914;51.008;4.300;2023-11-18T03:56:19;8.60;99.90
19538;DHT22;9914;51.008;4.300;2023-11-18T03:58:45;8.60;99.90
19538;DHT22;9914;51.008;4.300;2023-11-18T04:01:23;8.70;99.90
19538;DHT22;9914;51.008;4.300;2023-11-18T04:03:52;8.80;99.90
19538;DHT22;9914;51.008;4.300;2023-11-18T04:06:18;8.90;99.90
19538;DHT22;9914;51.008;4.300;2023-11-18T04:08:46;8.80;99.90
19538;DHT22;9914;51.008;4.300;2023-11-18T04:11:12;9.00;99.90
19538;DHT22;9914;51.008;4.300;2023-11-18T04:13:43;9.10;99.90
19538;DHT22;9914;51.008;4.300;2023-11-18T04:16:15;9.20;99.90
19538;DHT22;9914;51.008;4.300;2023-11-18T04:18:44;9.10;99.90
19538;DHT22;9914;51.008;4.300;2023-11-18T04:21:10;9.20;99.90
19538;DHT22;9914;51.008;4.300;2023-11-18T04:23:40;9.10;99.90
19538;DHT22;9914;51.008;4.300;2023-11-18T04:26:07;9.20;99.90
19538;DHT22;9914;51.008;4.300;2023-11-18T04:28:34;9.20;99.90
19538;DHT22;9914;51.008;4.300;2023-11-18T04:31:00;9.20;99.90
19538;DHT22;9914;51.008;4.300;2023-11-18T04:33:26;9.20;99.90
19538;DHT22;9914;51.008;4.300;2023-11-18T04:35:52;9.10;99.90
19538;DHT22;9914;51.008;4.300;2023-11-18T04:38:18;9.00;99.90
19538;DHT22;9914;51.008;4.300;2023-11-18T04:40:44;9.10;99.90
19538;DHT22;9914;51.008;4.300;2023-11-18T04:43:12;9.20;99.90
19538;DHT22;9914;51.008;4.300;2023-11-18T04:45:37;9.20;99.90
19538;DHT22;9914;51.008;4.300;2023-11-18T04:48:04;9.30;99.90
19538;DHT22;9914;51.008;4.300;2023-11-18T04:50:30;9.40;99.90
19538;DHT22;9914;51.008;4.300;2023-11-18T04:52:57;9.40;99.90
19538;DHT22;9914;51.008;4.300;2023-11-18T04:55:23;9.30;99.90
19538;DHT22;9914;51.008;4.300;2023-11-18T04:57:49;9.40;99.90
19538;DHT22;9914;51.008;4.300;2023-11-18T05:00:15;9.50;99.90
19538;DHT22;9914;51.008;4.300;2023-11-18T05:02:43;9.50;99.90
19538;DHT22;9914;51.008;4.300;2023-11-18T05:05:11;9.50;99.90
19538;DHT22;9914;51.008;4.300;2023-11-18T05:07:37;9.60;99.90
19538;DHT22;9914;51.008;4.300;2023-11-18T05:10:04;9.60;99.90
19538;DHT22;9914;51.008;4.300;2023-11-18T05:12:29;9.40;99.90
19538;DHT22;9914;51.008;4.300;2023-11-18T05:14:56;9.50;99.90
19538;DHT22;9914;51.008;4.300;2023-11-18T05:17:22;9.60;99.90
19538;DHT22;9914;51.008;4.300;2023-11-18T05:19:48;9.70;99.90
19538;DHT22;9914;51.008;4.300;2023-11-18T05:22:14;9.70;99.90
19538;DHT22;9914;51.008;4.300;2023-11-18T05:24:39;9.70;99.90
19538;DHT22;9914;51.008;4.300;2023-11-18T05:27:05;9.70;99.90
19538;DHT22;9914;51.008;4.300;2023-11-18T05:29:31;9.70;99.90
19538;DHT22;9914;51.008;4.300;2023-11-18T05:31:57;9.70;99.90
19538;DHT22;9914;51.008;4.300;2023-11-18T05:34:23;9.80;99.90
19538;DHT22;9914;51.008;4.300;2023-11-18T05:36:50;9.70;99.90
19538;DHT22;9914;51.008;4.300;2023-11-18T05:39:20;9.90;99.90
19538;DHT22;9914;51.008;4.300;2023-11-18T05:41:46;9.90;99.90
19538;DHT22;9914;51.008;4.300;2023-11-18T05:44:15;9.80;99.90
19538;DHT22;9914;51.008;4.300;2023-11-18T05:46:47;9.90;99.90
19538;DHT22;9914;51.008;4.300;2023-11-18T05:49:13;9.80;99.90
19538;DHT22;9914;51.008;4.300;2023-11-18T05:51:40;9.70;99.90
19538;DHT22;9914;51.008;4.300;2023-11-18T05:54:09;9.80;99.90
19538;DHT22;9914;51.008;4.300;2023-11-18T05:56:35;9.80;99.90
19538;DHT22;9914;51.008;4.300;2023-11-18T05:59:00;9.90;99.90
19538;DHT22;9914;51.008;4.300;2023-11-18T06:01:29;9.90;99.90
19538;DHT22;9914;51.008;4.300;2023-11-18T06:03:55;10.00;99.90
19538;DHT22;9914;51.008;4.300;2023-11-18T06:06:22;10.00;99.90
19538;DHT22;9914;51.008;4.300;2023-11-18T06:08:48;10.00;99.90
19538;DHT22;9914;51.008;4.300;2023-11-18T06:11:15;9.90;99.90
19538;DHT22;9914;51.008;4.300;2023-11-18T06:13:44;10.00;99.90
19538;DHT22;9914;51.008;4.300;2023-11-18T06:16:16;10.00;99.90
19538;DHT22;9914;51.008;4.300;2023-11-18T06:18:43;9.90;99.90
19538;DHT22;9914;51.008;4.300;2023-11-18T06:21:16;9.90;99.90
19538;DHT22;9914;51.008;4.300;2023-11-18T06:23:42;9.90;99.90
19538;DHT22;9914;51.008;4.300;2023-11-18T06:26:08;10.00;99.90
19538;DHT22;9914;51.008;4.300;2023-11-18T06:28:39;10.00;99.90
19538;DHT22;9914;51.008;4.300;2023-11-18T06:31:05;10.00;99.90
19538;DHT22;9914;51.008;4.300;2023-11-18T06:33:36;10.00;99.90
19538;DHT22;9914;51.008;4.300;2023-11-18T06:36:04;10.00;99.90
19538;DHT22;9914;51.008;4.300;2023-11-18T06:38:30;10.00;99.90
19538;DHT22;9914;51.008;4.300;2023-11-18T06:40:56;10.00;99.90
19538;DHT22;9914;51.008;4.300;2023-11-18T06:43:25;9.70;99.90
19538;DHT22;9914;51.008;4.300;2023-11-18T06:45:51;9.90;99.90
19538;DHT22;9914;51.008;4.300;2023-11-18T06:48:17;10.00;99.90
19538;DHT22;9914;51.008;4.300;2023-11-18T06:50:46;10.10;99.90
19538;DHT22;9914;51.008;4.300;2023-11-18T06:53:11;10.20;99.90
19538;DHT22;9914;51.008;4.300;2023-11-18T06:55:37;10.10;99.90
19538;DHT22;9914;51.008;4.300;2023-11-18T06:58:03;9.90;99.90
19538;DHT22;9914;51.008;4.300;2023-11-18T07:00:28;10.10;99.90
19538;DHT22;9914;51.008;4.300;2023-11-18T07:02:55;10.20;99.90
19538;DHT22;9914;51.008;4.300;2023-11-18T07:05:20;10.30;99.90
19538;DHT22;9914;51.008;4.300;2023-11-18T07:07:49;10.20;99.90
19538;DHT22;9914;51.008;4.300;2023-11-18T07:10:15;10.20;99.90
19538;DHT22;9914;51.008;4.300;2023-11-18T07:12:44;10.20;99.90
19538;DHT22;9914;51.008;4.300;2023-11-18T07:15:09;10.10;99.90
19538;DHT22;9914;51.008;4.300;2023-11-18T07:17:36;10.10;99.90
19538;DHT22;9914;51.008;4.300;2023-11-18T07:20:02;10.20;99.90
19538;DHT22;9914;51.008;4.300;2023-11-18T07:22:27;10.20;99.90
19538;DHT22;9914;51.008;4.300;2023-11-18T07:24:54;10.30;99.90
19538;DHT22;9914;51.008;4.300;2023-11-18T07:27:20;10.40;99.90
19538;DHT22;9914;51.008;4.300;2023-11-18T07:29:45;10.30;99.90
19538;DHT22;9914;51.008;4.300;2023-11-18T07:32:11;10.30;99.90
19538;DHT22;9914;51.008;4.300;2023-11-18T07:34:37;10.40;99.90
19538;DHT22;9914;51.008;4.300;2023-11-18T07:37:04;10.40;99.90
19538;DHT22;9914;51.008;4.300;2023-11-18T07:39:30;10.50;99.90
19538;DHT22;9914;51.008;4.300;2023-11-18T07:42:12;10.60;99.90
19538;DHT22;9914;51.008;4.300;2023-11-18T07:44:39;10.50;99.90
19538;DHT22;9914;51.008;4.300;2023-11-18T07:47:04;10.50;99.90
19538;DHT22;9914;51.008;4.300;2023-11-18T07:49:31;10.40;99.90
19538;DHT22;9914;51.008;4.300;2023-11-18T07:51:57;10.40;99.90
19538;DHT22;9914;51.008;4.300;2023-11-18T07:54:23;10.40;99.90
19538;DHT22;9914;51.008;4.300;2023-11-18T07:56:49;10.50;99.90
19538;DHT22;9914;51.008;4.300;2023-11-18T07:59:16;10.40;99.90
19538;DHT22;9914;51.008;4.300;2023-11-18T08:01:43;10.30;99.90
19538;DHT22;9914;51.008;4.300;2023-11-18T08:04:12;10.30;99.90
19538;DHT22;9914;51.008;4.300;2023-11-18T08:06:40;10.40;99.90
19538;DHT22;9914;51.008;4.300;2023-11-18T08:09:06;10.40;99.90
19538;DHT22;9914;51.008;4.300;2023-11-18T08:11:39;10.40;99.90
19538;DHT22;9914;51.008;4.300;2023-11-18T08:14:09;10.40;99.90
19538;DHT22;9914;51.008;4.300;2023-11-18T08:16:35;10.40;99.90
19538;DHT22;9914;51.008;4.300;2023-11-18T08:19:01;10.30;99.90
19538;DHT22;9914;51.008;4.300;2023-11-18T08:21:34;10.00;99.90
19538;DHT22;9914;51.008;4.300;2023-11-18T08:23:59;10.10;99.90
19538;DHT22;9914;51.008;4.300;2023-11-18T08:26:25;9.90;99.90
19538;DHT22;9914;51.008;4.300;2023-11-18T08:28:51;9.80;99.90
19538;DHT22;9914;51.008;4.300;2023-11-18T08:31:17;9.80;99.90
19538;DHT22;9914;51.008;4.300;2023-11-18T08:33:43;9.90;99.90
19538;DHT22;9914;51.008;4.300;2023-11-18T08:36:09;9.80;99.90
19538;DHT22;9914;51.008;4.300;2023-11-18T08:38:35;9.80;99.90
19538;DHT22;9914;51.008;4.300;2023-11-18T08:41:01;9.60;99.90
19538;DHT22;9914;51.008;4.300;2023-11-18T08:43:27;9.80;99.90
19538;DHT22;9914;51.008;4.300;2023-11-18T08:45:54;10.10;99.90
19538;DHT22;9914;51.008;4.300;2023-11-18T08:48:21;10.40;99.90
19538;DHT22;9914;51.008;4.300;2023-11-18T08:50:48;10.40;99.90
19538;DHT22;9914;51.008;4.300;2023-11-18T08:53:14;10.20;99.90
19538;DHT22;9914;51.008;4.300;2023-11-18T08:55:43;10.20;99.90
19538;DHT22;9914;51.008;4.300;2023-11-18T08:58:12;10.30;99.90
19538;DHT22;9914;51.008;4.300;2023-11-18T09:00:44;10.50;99.90
19538;DHT22;9914;51.008;4.300;2023-11-18T09:06:09;10.90;99.90
19538;DHT22;9914;51.008;4.300;2023-11-18T09:08:48;10.80;99.90
19538;DHT22;9914;51.008;4.300;2023-11-18T09:11:22;10.50;99.90
19538;DHT22;9914;51.008;4.300;2023-11-18T09:13:49;10.50;99.90
19538;DHT22;9914;51.008;4.300;2023-11-18T09:16:25;10.30;99.90
19538;DHT22;9914;51.008;4.300;2023-11-18T09:18:55;10.30;99.90
19538;DHT22;9914;51.008;4.300;2023-11-18T09:21:21;10.40;99.90
19538;DHT22;9914;51.008;4.300;2023-11-18T09:23:54;10.70;99.90
19538;DHT22;9914;51.008;4.300;2023-11-18T09:26:21;10.50;99.90
19538;DHT22;9914;51.008;4.300;2023-11-18T09:28:47;10.10;99.90
19538;DHT22;9914;51.008;4.300;2023-11-18T09:31:15;9.90;99.90
19538;DHT22;9914;51.008;4.300;2023-11-18T09:33:42;10.20;99.90
19538;DHT22;9914;51.008;4.300;2023-11-18T09:36:18;10.40;99.90
19538;DHT22;9914;51.008;4.300;2023-11-18T09:38:44;10.60;99.90
19538;DHT22;9914;51.008;4.300;2023-11-18T09:41:12;10.50;99.90
19538;DHT22;9914;51.008;4.300;2023-11-18T09:43:43;10.60;99.90
19538;DHT22;9914;51.008;4.300;2023-11-18T09:46:23;10.70;99.90
19538;DHT22;9914;51.008;4.300;2023-11-18T09:48:51;10.70;99.90
19538;DHT22;9914;51.008;4.300;2023-11-18T09:51:25;10.30;99.90
19538;DHT22;9914;51.008;4.300;2023-11-18T09:54:00;10.40;99.90
19538;DHT22;9914;51.008;4.300;2023-11-18T09:56:59;10.70;99.90
19538;DHT22;9914;51.008;4.300;2023-11-18T10:02:03;10.10;99.90
19538;DHT22;9914;51.008;4.300;2023-11-18T10:04:38;10.00;99.90
19538;DHT22;9914;51.008;4.300;2023-11-18T10:07:06;10.00;99.90
19538;DHT22;9914;51.008;4.300;2023-11-18T10:09:32;10.20;99.90
19538;DHT22;9914;51.008;4.300;2023-11-18T10:12:07;9.90;99.90
19538;DHT22;9914;51.008;4.300;2023-11-18T10:14:36;10.10;99.90
19538;DHT22;9914;51.008;4.300;2023-11-18T10:17:06;10.10;99.90
19538;DHT22;9914;51.008;4.300;2023-11-18T10:19:57;10.20;99.90
19538;DHT22;9914;51.008;4.300;2023-11-18T10:22:29;10.30;99.90
19538;DHT22;9914;51.008;4.300;2023-11-18T10:24:55;10.10;99.90
19538;DHT22;9914;51.008;4.300;2023-11-18T10:27:26;10.00;99.90
19538;DHT22;9914;51.008;4.300;2023-11-18T10:30:05;10.00;99.90
19538;DHT22;9914;51.008;4.300;2023-11-18T10:32:55;10.20;99.90
19538;DHT22;9914;51.008;4.300;2023-11-18T10:35:21;10.00;99.90
19538;DHT22;9914;51.008;4.300;2023-11-18T10:37:47;10.10;99.90
19538;DHT22;9914;51.008;4.300;2023-11-18T10:40:14;10.40;99.90
19538;DHT22;9914;51.008;4.300;2023-11-18T10:42:40;10.70;99.90
19538;DHT22;9914;51.008;4.300;2023-11-18T10:45:08;10.90;99.90
19538;DHT22;9914;51.008;4.300;2023-11-18T10:47:42;10.70;99.90
19538;DHT22;9914;51.008;4.300;2023-11-18T10:50:08;10.60;99.90
19538;DHT22;9914;51.008;4.300;2023-11-18T10:52:38;10.70;99.90
19538;DHT22;9914;51.008;4.300;2023-11-18T10:55:06;10.50;99.90
19538;DHT22;9914;51.008;4.300;2023-11-18T10:57:36;10.40;99.90
19538;DHT22;9914;51.008;4.300;2023-11-18T11:00:05;10.60;99.90
19538;DHT22;9914;51.008;4.300;2023-11-18T11:02:43;10.60;99.90
19538;DHT22;9914;51.008;4.300;2023-11-18T11:05:08;10.60;99.90
19538;DHT22;9914;51.008;4.300;2023-11-18T11:07:42;10.90;99.90
19538;DHT22;9914;51.008;4.300;2023-11-18T11:10:08;11.10;99.90
19538;DHT22;9914;51.008;4.300;2023-11-18T11:12:43;11.20;99.90
19538;DHT22;9914;51.008;4.300;2023-11-18T11:15:19;10.70;99.90
19538;DHT22;9914;51.008;4.300;2023-11-18T11:17:52;10.80;99.90
19538;DHT22;9914;51.008;4.300;2023-11-18T11:20:22;10.90;99.90
19538;DHT22;9914;51.008;4.300;2023-11-18T11:23:23;11.00;99.90
19538;DHT22;9914;51.008;4.300;2023-11-18T11:26:08;11.20;99.90
19538;DHT22;9914;51.008;4.300;2023-11-18T11:28:55;11.10;99.90
19538;DHT22;9914;51.008;4.300;2023-11-18T11:31:39;11.10;99.90
19538;DHT22;9914;51.008;4.300;2023-11-18T11:34:17;11.00;99.90
19538;DHT22;9914;51.008;4.300;2023-11-18T11:36:50;10.90;99.90
19538;DHT22;9914;51.008;4.300;2023-11-18T11:39:17;10.90;99.90
19538;DHT22;9914;51.008;4.300;2023-11-18T11:41:44;10.90;99.90
19538;DHT22;9914;51.008;4.300;2023-11-18T11:44:15;10.90;99.90
19538;DHT22;9914;51.008;4.300;2023-11-18T11:46:41;11.00;99.90
19538;DHT22;9914;51.008;4.300;2023-11-18T11:49:10;11.00;99.90
19538;DHT22;9914;51.008;4.300;2023-11-18T11:52:02;11.00;99.90
19538;DHT22;9914;51.008;4.300;2023-11-18T11:54:35;10.90;99.90
19538;DHT22;9914;51.008;4.300;2023-11-18T11:57:03;11.00;99.90
19538;DHT22;9914;51.008;4.300;2023-11-18T12:02:25;11.10;99.90
19538;DHT22;9914;51.008;4.300;2023-11-18T12:04:55;11.10;99.90
19538;DHT22;9914;51.008;4.300;2023-11-18T12:07:25;11.20;99.90
19538;DHT22;9914;51.008;4.300;2023-11-18T12:09:59;11.30;99.90
19538;DHT22;9914;51.008;4.300;2023-11-18T12:12:27;11.20;99.90
19538;DHT22;9914;51.008;4.300;2023-11-18T12:14:57;11.20;99.90
19538;DHT22;9914;51.008;4.300;2023-11-18T12:20:42;11.20;99.90
19538;DHT22;9914;51.008;4.300;2023-11-18T12:23:20;11.10;99.90
19538;DHT22;9914;51.008;4.300;2023-11-18T12:25:48;11.10;99.90
19538;DHT22;9914;51.008;4.300;2023-11-18T12:28:21;11.00;99.90
19538;DHT22;9914;51.008;4.300;2023-11-18T12:30:47;11.10;99.90
19538;DHT22;9914;51.008;4.300;2023-11-18T12:33:30;11.00;99.90
19538;DHT22;9914;51.008;4.300;2023-11-18T12:42:05;10.90;99.90
19538;DHT22;9914;51.008;4.300;2023-11-18T12:47:23;10.90;99.90
19538;DHT22;9914;51.008;4.300;2023-11-18T12:49:53;10.90;99.90
19538;DHT22;9914;51.008;4.300;2023-11-18T12:52:22;10.90;99.90
19538;DHT22;9914;51.008;4.300;2023-11-18T12:54:49;10.80;99.90
19538;DHT22;9914;51.008;4.300;2023-11-18T12:57:18;10.70;99.90
19538;DHT22;9914;51.008;4.300;2023-11-18T12:59:45;10.80;99.90
19538;DHT22;9914;51.008;4.300;2023-11-18T13:02:12;10.70;99.90
19538;DHT22;9914;51.008;4.300;2023-11-18T13:04:47;10.70;99.90
19538;DHT22;9914;51.008;4.300;2023-11-18T13:07:18;10.50;99.90
19538;DHT22;9914;51.008;4.300;2023-11-18T13:09:44;10.50;99.90
19538;DHT22;9914;51.008;4.300;2023-11-18T13:12:12;10.60;99.90
19538;DHT22;9914;51.008;4.300;2023-11-18T13:14:41;10.60;99.90
19538;DHT22;9914;51.008;4.300;2023-11-18T13:17:15;10.60;99.90
19538;DHT22;9914;51.008;4.300;2023-11-18T13:19:42;10.60;99.90
19538;DHT22;9914;51.008;4.300;2023-11-18T13:22:09;10.60;99.90
19538;DHT22;9914;51.008;4.300;2023-11-18T13:24:36;10.70;99.90
19538;DHT22;9914;51.008;4.300;2023-11-18T13:27:05;10.70;99.90
19538;DHT22;9914;51.008;4.300;2023-11-18T13:29:32;10.80;99.90
19538;DHT22;9914;51.008;4.300;2023-11-18T13:32:00;10.70;99.90
19538;DHT22;9914;51.008;4.300;2023-11-18T13:34:35;10.60;99.90
19538;DHT22;9914;51.008;4.300;2023-11-18T13:37:04;10.70;99.90
19538;DHT22;9914;51.008;4.300;2023-11-18T13:39:31;10.70;99.90
19538;DHT22;9914;51.008;4.300;2023-11-18T13:41:57;10.70;99.90
19538;DHT22;9914;51.008;4.300;2023-11-18T13:44:36;10.70;99.90
19538;DHT22;9914;51.008;4.300;2023-11-18T13:47:05;10.70;99.90
19538;DHT22;9914;51.008;4.300;2023-11-18T13:49:31;10.70;99.90
19538;DHT22;9914;51.008;4.300;2023-11-18T13:51:59;10.70;99.90
19538;DHT22;9914;51.008;4.300;2023-11-18T13:54:27;10.70;99.90
19538;DHT22;9914;51.008;4.300;2023-11-18T13:56:54;10.70;99.90
19538;DHT22;9914;51.008;4.300;2023-11-18T13:59:24;10.70;99.90
19538;DHT22;9914;51.008;4.300;2023-11-18T14:01:52;10.60;99.90
19538;DHT22;9914;51.008;4.300;2023-11-18T14:04:29;10.70;99.90
19538;DHT22;9914;51.008;4.300;2023-11-18T14:06:59;10.50;99.90
19538;DHT22;9914;51.008;4.300;2023-11-18T14:09:25;10.60;99.90
19538;DHT22;9914;51.008;4.300;2023-11-18T14:11:52;10.50;99.90
19538;DHT22;9914;51.008;4.300;2023-11-18T14:14:21;10.50;99.90
19538;DHT22;9914;51.008;4.300;2023-11-18T14:16:46;10.60;99.90
19538;DHT22;9914;51.008;4.300;2023-11-18T14:19:12;10.70;99.90
19538;DHT22;9914;51.008;4.300;2023-11-18T14:21:39;10.60;99.90
19538;DHT22;9914;51.008;4.300;2023-11-18T14:24:07;10.70;99.90
19538;DHT22;9914;51.008;4.300;2023-11-18T14:26:33;10.70;99.90
19538;DHT22;9914;51.008;4.300;2023-11-18T14:28:59;10.70;99.90
19538;DHT22;9914;51.008;4.300;2023-11-18T14:31:25;10.60;99.90
19538;DHT22;9914;51.008;4.300;2023-11-18T14:33:51;10.70;99.90
19538;DHT22;9914;51.008;4.300;2023-11-18T14:36:20;10.70;99.90
19538;DHT22;9914;51.008;4.300;2023-11-18T14:38:45;10.70;99.90
19538;DHT22;9914;51.008;4.300;2023-11-18T14:41:12;10.70;99.90
19538;DHT22;9914;51.008;4.300;2023-11-18T14:43:38;10.80;99.90
19538;DHT22;9914;51.008;4.300;2023-11-18T14:46:04;10.80;99.90
19538;DHT22;9914;51.008;4.300;2023-11-18T14:48:29;10.80;99.90
19538;DHT22;9914;51.008;4.300;2023-11-18T14:50:55;10.90;99.90
19538;DHT22;9914;51.008;4.300;2023-11-18T14:53:22;10.70;99.90
19538;DHT22;9914;51.008;4.300;2023-11-18T14:55:48;10.70;99.90
19538;DHT22;9914;51.008;4.300;2023-11-18T14:58:14;10.70;99.90
19538;DHT22;9914;51.008;4.300;2023-11-18T15:00:40;10.70;99.90
19538;DHT22;9914;51.008;4.300;2023-11-18T15:03:07;10.80;99.90
19538;DHT22;9914;51.008;4.300;2023-11-18T15:05:33;10.80;99.90
19538;DHT22;9914;51.008;4.300;2023-11-18T15:08:00;10.70;99.90
19538;DHT22;9914;51.008;4.300;2023-11-18T15:10:27;10.80;99.90
19538;DHT22;9914;51.008;4.300;2023-11-18T15:12:54;10.80;99.90
19538;DHT22;9914;51.008;4.300;2023-11-18T15:15:21;10.80;99.90
19538;DHT22;9914;51.008;4.300;2023-11-18T15:17:47;10.90;99.90
19538;DHT22;9914;51.008;4.300;2023-11-18T15:20:19;10.90;99.90
19538;DHT22;9914;51.008;4.300;2023-11-18T15:22:45;10.90;99.90
19538;DHT22;9914;51.008;4.300;2023-11-18T15:25:12;10.90;99.90
19538;DHT22;9914;51.008;4.300;2023-11-18T15:27:39;10.90;99.90
19538;DHT22;9914;51.008;4.300;2023-11-18T15:30:07;10.90;99.90
19538;DHT22;9914;51.008;4.300;2023-11-18T15:32:36;10.90;99.90
19538;DHT22;9914;51.008;4.300;2023-11-18T15:35:01;10.90;99.90
19538;DHT22;9914;51.008;4.300;2023-11-18T15:37:27;11.00;99.90
19538;DHT22;9914;51.008;4.300;2023-11-18T15:39:53;11.00;99.90
19538;DHT22;9914;51.008;4.300;2023-11-18T15:42:18;11.10;99.90
19538;DHT22;9914;51.008;4.300;2023-11-18T15:44:44;11.10;99.90
19538;DHT22;9914;51.008;4.300;2023-11-18T15:47:09;11.20;99.90
19538;DHT22;9914;51.008;4.300;2023-11-18T15:49:35;11.20;99.90
19538;DHT22;9914;51.008;4.300;2023-11-18T15:52:01;11.20;99.90
19538;DHT22;9914;51.008;4.300;2023-11-18T15:54:27;11.30;99.90
19538;DHT22;9914;51.008;4.300;2023-11-18T15:56:53;11.20;99.90
19538;DHT22;9914;51.008;4.300;2023-11-18T15:59:19;11.20;99.90
19538;DHT22;9914;51.008;4.300;2023-11-18T16:01:44;11.20;99.90
19538;DHT22;9914;51.008;4.300;2023-11-18T16:04:11;11.30;99.90
19538;DHT22;9914;51.008;4.300;2023-11-18T16:06:36;11.40;99.90
19538;DHT22;9914;51.008;4.300;2023-11-18T16:09:02;11.40;99.90
19538;DHT22;9914;51.008;4.300;2023-11-18T16:11:29;11.60;99.90
19538;DHT22;9914;51.008;4.300;2023-11-18T16:13:54;11.60;99.90
19538;DHT22;9914;51.008;4.300;2023-11-18T16:16:20;11.60;99.90
19538;DHT22;9914;51.008;4.300;2023-11-18T16:18:49;11.60;99.90